Archival Weather

Chicago O'Hare International

Chicago, Illinois (KORD)

Report from: Friday, September 15, 2023 2:51 PM CDT
Current time: Tuesday, July 16, 2024 4:07 AM CDT

Current weather – Weather history – Daily summaries
Weather forecast

Temperature24.4°C (75.9°F)
Dew point7.8°C (46.0°F)
Winds 3 kts (1.5 m/s, 3.5 mph) South-Southeast (160°)
Visibility10 mi. (16.1 km)
Clouds Few clouds 5,500 ft. (1,676 m)
Scattered clouds 25,000 ft. (7,620 m)
Altimeter30.10 in.Hg (1019 mB)
Relative humidity35 %
Density altitude1,051 ft. (320 m)
Sea-level pressure101.9 kPa (1019 mB, 30.09 in.Hg)
Remarks Automated weather observing station with precipitation discriminator
Flight conditions Visual Meteorological Conditions
Raw dataKORD 151951Z 16003KT 10SM FEW055 SCT250 24/08 A3010 RMK AO2 SLP190 T02440078
An error has occurred. This application may no longer respond until reloaded. Reload 🗙